Time;durP1;ratioP1;P1;durP2;ratioP2;P2;SDS_P1;SDS_P2;PMS_P1;PMS_P2;Temp;Humidity;BMP_temperature;BMP_pressure;BME280_temperature;BME280_humidity;BME280_pressure;Samples;Min_cycle;Max_cycle;Signal;HPM_P1;HPM_P2
2021/08/09 00:01:36;;;;;;;5.57;1.87;;;;;;;8.93;100.00;94094.56;5075744;28;20207;-80
2021/08/09 00:04:06;;;;;;;5.17;1.90;;;;;;;8.99;100.00;94098.22;5075865;28;20230;-80
2021/08/09 00:06:32;;;;;;;3.67;1.63;;;;;;;9.04;100.00;94095.88;5077393;28;20195;-81
2021/08/09 00:09:00;;;;;;;4.50;2.00;;;;;;;9.09;100.00;94098.75;5078050;28;20199;-79
2021/08/09 00:11:26;;;;;;;5.03;1.80;;;;;;;9.05;100.00;94093.09;5077631;28;20241;-81
2021/08/09 00:13:53;;;;;;;5.10;1.60;;;;;;;9.02;100.00;94092.66;5074840;28;20233;-81
2021/08/09 00:16:21;;;;;;;6.50;1.80;;;;;;;8.97;100.00;94092.41;5075550;28;20213;-81
2021/08/09 00:18:48;;;;;;;5.13;1.83;;;;;;;8.93;100.00;94088.56;5075413;28;20684;-80
2021/08/09 00:21:16;;;;;;;6.13;2.00;;;;;;;8.84;100.00;94088.66;5075321;28;20206;-80
2021/08/09 00:23:43;;;;;;;2.87;1.90;;;;;;;8.87;100.00;94095.28;5075358;28;20211;-80
2021/08/09 00:26:10;;;;;;;6.50;1.77;;;;;;;8.82;100.00;94090.63;5075334;28;20206;-80
2021/08/09 00:28:37;;;;;;;2.53;1.90;;;;;;;8.77;100.00;94092.97;5075366;28;20203;-80
2021/08/09 00:31:04;;;;;;;3.37;1.77;;;;;;;8.74;100.00;94089.91;5075232;28;20210;-80
2021/08/09 00:33:31;;;;;;;7.73;2.00;;;;;;;8.74;100.00;94098.53;5075020;28;20230;-80
2021/08/09 00:35:58;;;;;;;5.50;1.87;;;;;;;8.70;100.00;94098.09;5074977;28;20199;-81
2021/08/09 00:38:24;;;;;;;3.40;1.90;;;;;;;8.75;100.00;94097.56;5074923;28;20282;-81
2021/08/09 00:40:51;;;;;;;6.77;1.80;;;;;;;8.84;100.00;94099.09;5075170;28;20198;-81
2021/08/09 00:43:17;;;;;;;6.37;1.93;;;;;;;8.96;100.00;94096.00;5075128;28;20199;-81
2021/08/09 00:45:44;;;;;;;6.20;2.00;;;;;;;8.99;100.00;94099.06;5074618;28;20234;-80
2021/08/09 00:48:10;;;;;;;4.53;1.83;;;;;;;9.04;100.00;94091.50;5074702;28;20650;-80
2021/08/09 00:50:38;;;;;;;5.73;1.80;;;;;;;9.01;100.00;94080.63;5074600;28;20654;-80
2021/08/09 00:53:05;;;;;;;52.03;18.70;;;;;;;8.97;100.00;94092.41;5074756;28;20325;-82
2021/08/09 00:55:32;;;;;;;4.83;1.50;;;;;;;8.93;100.00;94089.38;5074625;28;20207;-82
2021/08/09 00:57:58;;;;;;;7.13;1.53;;;;;;;8.88;100.00;94094.31;5074843;28;20199;-82
2021/08/09 01:00:24;;;;;;;4.83;1.63;;;;;;;8.89;100.00;94086.31;5074503;28;20199;-81
2021/08/09 01:02:51;;;;;;;3.83;1.70;;;;;;;8.89;100.00;94094.13;5074447;28;20202;-80
2021/08/09 01:05:18;;;;;;;3.83;1.67;;;;;;;8.91;100.00;94086.16;5074278;28;20573;-80
2021/08/09 01:07:51;;;;;;;6.30;1.63;;;;;;;8.81;100.00;94094.22;5074796;28;20202;-82
2021/08/09 01:10:24;;;;;;;4.10;2.07;;;;;;;8.82;100.00;94092.44;5074318;28;20195;-80
2021/08/09 01:12:58;;;;;;;6.07;1.60;;;;;;;8.81;100.00;94086.41;5074297;28;20198;-81
2021/08/09 01:15:30;;;;;;;7.10;1.80;;;;;;;8.78;100.00;94089.38;5074261;28;20197;-81
2021/08/09 01:18:01;;;;;;;3.87;1.50;;;;;;;8.74;100.00;94084.72;5074600;28;20294;-80
2021/08/09 01:20:45;;;;;;;4.50;1.70;;;;;;;8.70;100.00;94079.88;5073890;28;20202;-80
2021/08/09 01:23:22;;;;;;;3.67;1.50;;;;;;;8.76;100.00;94082.72;5054384;28;20203;-81
2021/08/09 01:25:51;;;;;;;3.80;2.10;;;;;;;8.80;100.00;94076.19;5053119;28;20198;-79
2021/08/09 01:28:20;;;;;;;6.63;2.00;;;;;;;8.85;100.00;94085.06;5053832;28;20206;-80
2021/08/09 01:30:48;;;;;;;8.17;2.13;;;;;;;8.86;100.00;94089.28;5053993;28;20210;-80
2021/08/09 01:33:17;;;;;;;2.37;1.60;;;;;;;8.91;100.00;94080.09;5053863;28;20458;-80
2021/08/09 01:35:44;;;;;;;4.80;2.27;;;;;;;8.82;100.00;94080.22;5053923;28;20204;-80
2021/08/09 01:38:13;;;;;;;4.90;1.63;;;;;;;8.79;100.00;94085.81;5053734;28;20199;-80
2021/08/09 01:40:40;;;;;;;3.87;1.93;;;;;;;8.76;100.00;94080.97;5053582;28;20203;-81
2021/08/09 01:43:08;;;;;;;5.10;1.90;;;;;;;8.76;100.00;94087.94;5053719;28;20199;-83
2021/08/09 01:45:36;;;;;;;5.93;1.80;;;;;;;8.70;100.00;94079.88;5053473;28;20241;-80
2021/08/09 01:48:03;;;;;;;4.90;2.00;;;;;;;8.59;100.00;94076.91;5053715;28;20200;-80
2021/08/09 01:50:30;;;;;;;4.97;1.90;;;;;;;8.60;100.00;94086.34;5053608;28;20578;-80
2021/08/09 01:52:57;;;;;;;2.90;1.93;;;;;;;8.64;100.00;94085.81;5053430;28;20210;-81
2021/08/09 01:55:24;;;;;;;3.43;1.87;;;;;;;8.63;100.00;94078.19;5053285;28;20227;-81
2021/08/09 01:57:51;;;;;;;4.90;1.90;;;;;;;8.67;100.00;94090.63;5053612;28;20206;-79
2021/08/09 02:00:18;;;;;;;5.60;1.67;;;;;;;8.70;100.00;94081.69;5053579;28;20195;-80
2021/08/09 02:02:48;;;;;;;3.27;2.17;;;;;;;8.73;100.00;94083.91;5053375;28;20291;-79
2021/08/09 02:05:16;;;;;;;5.23;2.03;;;;;;;8.76;100.00;94078.34;5053440;28;20658;-80
2021/08/09 02:07:45;;;;;;;6.37;1.87;;;;;;;8.74;100.00;94080.31;5053168;28;20205;-80
2021/08/09 02:10:13;;;;;;;6.70;2.10;;;;;;;8.75;100.00;94087.13;5053443;28;20206;-80
2021/08/09 02:12:46;;;;;;;6.10;1.80;;;;;;;8.72;100.00;94084.09;5053180;28;20545;-80
2021/08/09 02:15:16;;;;;;;4.37;1.87;;;;;;;8.66;100.00;94086.44;5053310;28;20238;-80
2021/08/09 02:17:46;;;;;;;6.43;2.00;;;;;;;8.66;100.00;94096.84;5053160;28;20199;-80
2021/08/09 02:20:25;;;;;;;3.60;1.53;;;;;;;8.55;100.00;94099.09;5053056;28;20554;-80
2021/08/09 02:22:57;;;;;;;3.60;2.00;;;;;;;8.51;100.00;94089.03;5053171;28;20744;-80
2021/08/09 02:25:26;;;;;;;4.20;1.97;;;;;;;8.62;100.00;94092.19;5053149;28;20207;-80
2021/08/09 02:27:56;;;;;;;4.07;2.03;;;;;;;8.61;100.00;94095.75;5052910;28;20570;-81
2021/08/09 02:30:24;;;;;;;7.87;2.03;;;;;;;8.63;100.00;94086.00;5052995;28;20205;-81
2021/08/09 02:32:54;;;;;;;6.93;2.50;;;;;;;8.67;100.00;94089.84;5052748;28;20207;-81
2021/08/09 02:35:25;;;;;;;5.80;2.00;;;;;;;8.64;100.00;94098.00;5052836;28;20690;-81
2021/08/09 02:37:52;;;;;;;7.37;2.30;;;;;;;8.53;100.00;94091.47;5052574;28;20204;-80
2021/08/09 02:40:20;;;;;;;4.63;2.33;;;;;;;8.48;100.00;94096.41;5053050;28;20207;-80
2021/08/09 02:42:47;;;;;;;8.13;2.30;;;;;;;8.56;100.00;94098.09;5052828;28;20199;-80
2021/08/09 02:45:14;;;;;;;7.03;2.37;;;;;;;8.61;100.00;94096.59;5052706;28;20239;-81
2021/08/09 02:47:43;;;;;;;5.37;2.30;;;;;;;8.57;100.00;94102.31;5053046;28;20294;-80
2021/08/09 02:50:11;;;;;;;7.77;2.27;;;;;;;8.72;100.00;94103.13;5052822;28;20195;-81
2021/08/09 02:52:40;;;;;;;3.30;2.07;;;;;;;8.63;100.00;94104.22;5052779;28;20210;-81
2021/08/09 02:55:09;;;;;;;5.90;2.17;;;;;;;8.55;100.00;94101.69;5052490;28;20238;-82
2021/08/09 02:57:37;;;;;;;2.93;1.90;;;;;;;8.54;100.00;94100.06;5052820;28;20199;-79
2021/08/09 03:00:05;;;;;;;8.00;2.17;;;;;;;8.52;100.00;94108.06;5052802;28;20208;-80
2021/08/09 03:02:37;;;;;;;6.27;2.40;;;;;;;8.50;100.00;94105.63;5052447;28;20642;-81
2021/08/09 03:05:06;;;;;;;5.13;2.00;;;;;;;8.45;100.00;94105.38;5052866;28;20211;-81
2021/08/09 03:07:36;;;;;;;7.63;2.17;;;;;;;8.54;100.00;94110.47;5052755;28;20204;-81
2021/08/09 03:10:06;;;;;;;5.03;2.50;;;;;;;8.62;100.00;94102.59;5052279;28;20448;-81
2021/08/09 03:12:33;;;;;;;9.67;2.50;;;;;;;8.66;100.00;94098.63;5052583;28;20203;-80
2021/08/09 03:14:59;;;;;;;6.13;1.90;;;;;;;8.68;100.00;94096.66;5052534;28;20231;-80
2021/08/09 03:17:26;;;;;;;4.93;2.57;;;;;;;8.66;100.00;94093.41;5052655;28;20209;-81
2021/08/09 03:19:52;;;;;;;5.77;2.00;;;;;;;8.59;100.00;94098.53;5052561;28;20199;-82
2021/08/09 03:22:19;;;;;;;5.77;2.30;;;;;;;8.51;100.00;94096.84;5052715;28;20204;-81
2021/08/09 03:24:45;;;;;;;7.27;2.30;;;;;;;8.63;100.00;94099.81;5055869;28;20195;-80
2021/08/09 03:27:13;;;;;;;8.27;2.47;;;;;;;8.69;100.00;94100.88;5072292;28;20194;-81
2021/08/09 03:29:40;;;;;;;5.20;2.10;;;;;;;8.72;100.00;94097.13;5072465;28;20677;-81
2021/08/09 03:32:07;;;;;;;3.50;2.20;;;;;;;8.77;100.00;94095.56;5072377;28;20201;-82
2021/08/09 03:34:33;;;;;;;7.73;2.30;;;;;;;8.79;100.00;94098.81;5072295;28;20590;-80
2021/08/09 03:37:00;;;;;;;11.23;2.27;;;;;;;8.78;100.00;94106.81;5072428;28;20203;-81
2021/08/09 03:39:26;;;;;;;3.47;2.17;;;;;;;8.76;100.00;94104.38;5072234;28;20206;-81
2021/08/09 03:41:53;;;;;;;3.67;1.90;;;;;;;8.75;100.00;94100.16;5072438;28;20195;-81
2021/08/09 03:44:20;;;;;;;6.40;2.43;;;;;;;8.73;100.00;94094.31;5072361;28;20233;-81
2021/08/09 03:46:47;;;;;;;3.87;2.30;;;;;;;8.71;100.00;94096.31;5072213;28;20195;-81
2021/08/09 03:49:13;;;;;;;7.13;1.83;;;;;;;8.70;100.00;94092.09;5074327;28;20195;-81
2021/08/09 03:51:41;;;;;;;3.10;1.83;;;;;;;8.68;100.00;94091.47;5075880;28;20206;-81
2021/08/09 03:54:09;;;;;;;5.40;2.07;;;;;;;8.61;100.00;94096.59;5075777;28;20226;-81
2021/08/09 03:56:35;;;;;;;10.73;2.70;;;;;;;8.66;100.00;94096.84;5076676;28;20446;-81
2021/08/09 03:59:02;;;;;;;5.70;2.00;;;;;;;8.66;100.00;94090.81;5077211;28;20214;-80
2021/08/09 04:01:37;;;;;;;2.27;1.83;;;;;;;8.67;100.00;94097.66;5076495;28;20214;-80
2021/08/09 04:04:03;;;;;;;6.43;2.13;;;;;;;8.67;100.00;94090.63;5076171;28;20607;-81
2021/08/09 04:06:30;;;;;;;12.00;2.33;;;;;;;8.67;100.00;94090.63;5075701;28;20657;-81
2021/08/09 04:08:56;;;;;;;3.67;2.33;;;;;;;8.64;100.00;94096.22;5076149;28;20199;-81
2021/08/09 04:11:23;;;;;;;5.00;2.07;;;;;;;8.63;100.00;94104.22;5075642;28;20680;-81
2021/08/09 04:13:49;;;;;;;5.97;2.33;;;;;;;8.59;100.00;94102.94;5075396;28;20653;-81
2021/08/09 04:16:15;;;;;;;5.93;2.00;;;;;;;8.58;100.00;94101.34;5075467;28;20206;-81
2021/08/09 04:18:43;;;;;;;5.90;2.33;;;;;;;8.55;100.00;94101.69;5075491;28;20199;-82
2021/08/09 04:21:10;;;;;;;4.67;2.07;;;;;;;8.55;100.00;94092.09;5075266;28;20199;-81
2021/08/09 04:23:36;;;;;;;8.43;2.40;;;;;;;8.61;100.00;94095.75;5075402;28;20531;-81
2021/08/09 04:26:03;;;;;;;5.83;2.20;;;;;;;8.62;100.00;94092.19;5075439;28;20202;-81
2021/08/09 04:28:29;;;;;;;4.13;2.23;;;;;;;8.64;100.00;94085.81;5075081;28;20209;-81
2021/08/09 04:30:55;;;;;;;7.82;2.95;;;;;;;8.65;100.00;94087.41;5074137;28;20512;-81
2021/08/09 04:33:22;;;;;;;4.40;2.17;;;;;;;8.68;100.00;94087.06;5075140;28;20201;-81
2021/08/09 04:35:50;;;;;;;4.10;2.10;;;;;;;8.76;100.00;94077.53;5074812;28;20222;-81
2021/08/09 04:38:16;;;;;;;4.13;2.30;;;;;;;8.83;100.00;94079.22;5075243;28;20229;-80
2021/08/09 04:40:43;;;;;;;10.03;2.57;;;;;;;8.88;100.00;94083.91;5075173;28;20203;-80
2021/08/09 04:43:09;;;;;;;5.60;2.23;;;;;;;8.87;100.00;94077.06;5075002;28;20213;-81
2021/08/09 04:45:36;;;;;;;2.97;1.90;;;;;;;8.89;100.00;94080.28;5074981;28;20245;-81
2021/08/09 04:48:02;;;;;;;6.00;2.20;;;;;;;8.88;100.00;94087.31;5075914;28;20237;-79
2021/08/09 04:50:29;;;;;;;6.33;1.83;;;;;;;8.87;100.00;94097.91;5075081;28;20204;-82
2021/08/09 04:52:57;;;;;;;7.20;2.07;;;;;;;8.86;100.00;94093.69;5075845;28;20202;-80
2021/08/09 04:55:23;;;;;;;5.37;1.97;;;;;;;8.88;100.00;94086.50;5074806;28;20226;-83
2021/08/09 04:57:50;;;;;;;7.00;2.30;;;;;;;8.85;100.00;94076.44;5074567;28;20199;-80
2021/08/09 05:00:16;;;;;;;3.90;2.50;;;;;;;8.84;100.00;94086.06;5074487;28;20210;-82
2021/08/09 05:02:43;;;;;;;6.63;2.40;;;;;;;8.84;100.00;94093.88;5070387;28;20203;-83
2021/08/09 05:05:09;;;;;;;5.00;1.80;;;;;;;8.82;100.00;94084.63;5070342;28;20206;-81
2021/08/09 05:07:36;;;;;;;6.73;2.30;;;;;;;8.86;100.00;94083.28;5073913;28;20202;-81
2021/08/09 05:10:06;;;;;;;7.07;2.53;;;;;;;8.93;100.00;94088.56;5074534;28;20203;-82
2021/08/09 05:12:32;;;;;;;5.63;2.10;;;;;;;8.95;100.00;94087.38;5074316;28;20202;-81
2021/08/09 05:14:59;;;;;;;9.57;2.20;;;;;;;9.00;100.00;94084.22;5074057;28;20237;-81
2021/08/09 05:17:26;;;;;;;6.33;2.40;;;;;;;9.03;100.00;94078.66;5074020;28;20476;-81
2021/08/09 05:19:53;;;;;;;4.17;2.30;;;;;;;9.13;100.00;94102.63;5073776;28;20206;-82
2021/08/09 05:22:20;;;;;;;11.13;2.30;;;;;;;9.22;100.00;94111.91;5074193;28;20604;-80
2021/08/09 05:24:46;;;;;;;4.23;1.83;;;;;;;9.37;100.00;94095.44;5074000;28;20206;-81
2021/08/09 05:27:14;;;;;;;5.00;2.43;;;;;;;9.44;100.00;94098.91;5074001;28;20202;-81
2021/08/09 05:29:40;;;;;;;8.30;2.03;;;;;;;9.59;100.00;94089.25;5073872;28;20587;-80
2021/08/09 05:32:07;;;;;;;5.70;1.87;;;;;;;9.73;100.00;94102.41;5073857;28;20681;-81
2021/08/09 05:34:34;;;;;;;6.10;1.80;;;;;;;9.87;100.00;94098.13;5074037;28;20219;-81
2021/08/09 05:37:00;;;;;;;3.77;1.87;;;;;;;9.98;100.00;94098.41;5073907;28;20202;-81
2021/08/09 05:39:27;;;;;;;3.00;1.77;;;;;;;10.05;100.00;94101.06;5073917;28;20199;-81
2021/08/09 05:41:53;;;;;;;3.70;1.70;;;;;;;10.21;100.00;94096.56;5073736;28;20577;-81
2021/08/09 05:44:21;;;;;;;6.47;1.90;;;;;;;10.32;100.00;94106.50;5073498;28;20238;-79
2021/08/09 05:46:50;;;;;;;4.47;1.60;;;;;;;10.46;100.00;94100.41;5073916;28;20194;-81
2021/08/09 05:49:16;;;;;;;5.77;1.47;;;;;;;10.57;100.00;94101.66;5073840;28;20589;-81
2021/08/09 05:51:43;;;;;;;3.47;1.60;;;;;;;10.69;100.00;94105.34;5073541;28;20203;-81
2021/08/09 05:54:09;;;;;;;3.23;1.70;;;;;;;10.80;100.00;94084.91;5073539;28;20558;-81
2021/08/09 05:56:36;;;;;;;4.60;1.40;;;;;;;11.02;100.00;94094.22;5073337;28;20230;-81
2021/08/09 05:59:02;;;;;;;7.00;1.50;;;;;;;11.23;100.00;94105.59;5073390;28;20225;-80
2021/08/09 06:01:30;;;;;;;2.83;1.50;;;;;;;11.38;100.00;94113.28;5073479;28;20210;-81
2021/08/09 06:03:57;;;;;;;3.70;1.27;;;;;;;11.51;100.00;94107.25;5073441;28;20226;-81
2021/08/09 06:06:23;;;;;;;4.23;1.10;;;;;;;11.62;100.00;94104.06;5073265;28;20206;-82
2021/08/09 06:08:50;;;;;;;3.13;1.37;;;;;;;11.67;100.00;94106.88;5073355;28;20565;-81
2021/08/09 06:11:16;;;;;;;3.83;1.70;;;;;;;11.71;100.00;94097.66;5072758;28;20203;-82
2021/08/09 06:13:43;;;;;;;5.83;1.67;;;;;;;11.77;100.00;94099.44;5073017;28;20207;-81
2021/08/09 06:16:10;;;;;;;2.17;1.60;;;;;;;11.88;100.00;94094.66;5073091;28;20272;-80
2021/08/09 06:18:38;;;;;;;3.00;1.20;;;;;;;12.09;100.00;94102.34;5073078;28;20202;-81
2021/08/09 06:21:05;;;;;;;5.13;1.20;;;;;;;12.30;100.00;94105.75;5073129;28;20199;-80
2021/08/09 06:23:31;;;;;;;2.13;1.10;;;;;;;12.75;100.00;94098.00;5073073;28;20199;-80
2021/08/09 06:25:58;;;;;;;3.13;1.00;;;;;;;13.18;100.00;94101.91;5072958;28;20209;-80
2021/08/09 06:28:24;;;;;;;1.60;1.00;;;;;;;13.72;100.00;94099.84;5072842;28;20288;-81
2021/08/09 06:30:51;;;;;;;1.80;0.95;;;;;;;13.98;100.00;94102.28;5072909;28;20206;-80
2021/08/09 06:33:17;;;;;;;5.97;1.00;;;;;;;14.68;100.00;94111.03;5073101;28;20199;-81
2021/08/09 06:35:45;;;;;;;1.52;0.80;;;;;;;15.16;100.00;94095.34;5073002;28;20223;-81
2021/08/09 06:38:12;;;;;;;1.65;0.60;;;;;;;15.74;100.00;94095.81;5072926;28;20206;-81
2021/08/09 06:40:42;;;;;;;2.90;0.90;;;;;;;16.02;100.00;94099.69;5072744;28;20201;-81
2021/08/09 06:43:09;;;;;;;1.55;0.82;;;;;;;15.87;100.00;94092.19;5072767;28;20600;-80
2021/08/09 06:45:40;;;;;;;1.98;0.70;;;;;;;15.38;100.00;94092.25;5072672;28;20230;-81
2021/08/09 06:48:08;;;;;;;4.07;0.85;;;;;;;15.35;100.00;94098.75;5072828;28;20202;-81
2021/08/09 06:50:34;;;;;;;1.27;0.90;;;;;;;15.51;100.00;94094.69;5072832;28;20207;-80
2021/08/09 06:53:02;;;;;;;2.60;0.70;;;;;;;15.70;100.00;94092.00;5072692;28;20195;-79
2021/08/09 06:55:29;;;;;;;1.83;1.20;;;;;;;15.94;100.00;94085.03;5072540;28;20332;-82
2021/08/09 06:57:55;;;;;;;5.43;0.90;;;;;;;16.21;100.00;94088.03;5072891;28;20217;-81
2021/08/09 07:00:22;;;;;;;2.20;0.75;;;;;;;16.43;100.00;94095.38;5072853;28;20604;-81
2021/08/09 07:02:48;;;;;;;3.08;1.10;;;;;;;16.55;94.44;94092.75;5072713;28;20198;-81
2021/08/09 07:05:15;;;;;;;8.35;0.73;;;;;;;16.62;86.27;94094.25;5072645;28;20543;-80
2021/08/09 07:07:42;;;;;;;3.22;0.90;;;;;;;16.72;83.22;94092.84;5072707;28;20688;-81
2021/08/09 07:10:12;;;;;;;2.70;1.20;;;;;;;16.86;85.72;94088.97;5072545;28;20609;-80
2021/08/09 07:12:39;;;;;;;6.18;1.25;;;;;;;17.05;82.31;94092.28;5072059;28;20722;-82
2021/08/09 07:15:06;;;;;;;3.25;0.95;;;;;;;17.20;88.10;94094.41;5072487;28;20230;-83
2021/08/09 07:17:39;;;;;;;3.00;0.82;;;;;;;17.22;94.56;94092.38;5072642;28;20217;-81
2021/08/09 07:20:07;;;;;;;3.17;0.70;;;;;;;17.27;81.96;94089.81;5072577;28;20202;-80
2021/08/09 07:22:33;;;;;;;5.82;0.93;;;;;;;17.28;81.81;94091.41;5072406;28;20202;-81
2021/08/09 07:25:00;;;;;;;1.10;0.70;;;;;;;17.37;83.25;94100.56;5075878;28;20202;-81
2021/08/09 07:27:28;;;;;;;1.08;0.70;;;;;;;17.36;80.98;94092.91;5076316;28;20211;-81
2021/08/09 07:29:54;;;;;;;1.52;0.63;;;;;;;17.48;76.60;94103.41;5076194;28;20656;-81
2021/08/09 07:32:20;;;;;;;3.20;0.80;;;;;;;17.39;87.68;94098.50;5076245;28;20210;-81
2021/08/09 07:34:47;;;;;;;3.80;0.57;;;;;;;17.37;80.10;94095.31;5076048;28;20211;-80
2021/08/09 07:37:13;;;;;;;1.30;0.60;;;;;;;17.46;78.59;94108.13;5075942;28;20689;-80
2021/08/09 07:39:40;;;;;;;1.80;0.73;;;;;;;17.52;79.87;94101.88;5076275;28;20198;-81
2021/08/09 07:42:06;;;;;;;1.95;0.80;;;;;;;17.39;74.72;94098.50;5076111;28;20206;-80
2021/08/09 07:44:34;;;;;;;3.00;0.80;;;;;;;17.39;83.10;94101.13;5076394;28;20441;-81
2021/08/09 07:47:00;;;;;;;3.30;0.75;;;;;;;17.58;78.15;94103.59;5076478;28;20203;-83
2021/08/09 07:49:27;;;;;;;1.65;0.70;;;;;;;17.57;77.31;94099.38;5075947;28;20203;-81
2021/08/09 07:51:53;;;;;;;2.20;0.68;;;;;;;17.30;72.57;94107.00;5075997;28;20205;-82
2021/08/09 07:54:20;;;;;;;1.35;0.73;;;;;;;17.46;86.41;94105.50;5075983;28;20206;-82
2021/08/09 07:56:47;;;;;;;3.58;0.75;;;;;;;17.44;74.38;94110.22;5075856;28;20300;-81
2021/08/09 07:59:14;;;;;;;1.63;0.85;;;;;;;17.24;72.77;94103.47;5076186;28;20202;-81
2021/08/09 08:01:42;;;;;;;0.60;0.60;;;;;;;17.43;77.69;94108.59;5076229;28;20560;-81
2021/08/09 08:04:09;;;;;;;1.35;0.75;;;;;;;17.45;75.12;94114.44;5075598;28;20201;-80
2021/08/09 08:06:35;;;;;;;3.50;0.90;;;;;;;17.73;81.31;94108.34;5076115;28;20540;-81
2021/08/09 08:09:02;;;;;;;2.80;0.90;;;;;;;17.93;78.22;94115.88;5075843;28;20206;-80
2021/08/09 08:11:29;;;;;;;1.00;0.70;;;;;;;17.81;75.10;94113.25;5075800;28;20195;-79
2021/08/09 08:13:55;;;;;;;2.03;0.77;;;;;;;17.70;73.19;94114.09;5075517;28;20203;-80
2021/08/09 08:16:22;;;;;;;1.83;0.80;;;;;;;17.82;74.17;94101.66;5075193;28;20230;-80
2021/08/09 08:18:50;;;;;;;2.72;0.80;;;;;;;17.92;79.06;94093.16;5075593;28;20348;-81
2021/08/09 08:21:16;;;;;;;2.60;1.00;;;;;;;18.14;77.20;94090.63;5075387;28;20210;-82
2021/08/09 08:23:43;;;;;;;2.13;0.75;;;;;;;18.23;73.40;94096.28;5075615;28;20198;-81
2021/08/09 08:26:09;;;;;;;2.30;0.70;;;;;;;18.07;71.36;94096.06;5075102;28;20207;-80
2021/08/09 08:28:36;;;;;;;4.68;0.80;;;;;;;18.01;72.98;94091.72;5075336;28;20199;-81
2021/08/09 08:31:03;;;;;;;0.90;0.60;;;;;;;18.00;72.22;94092.78;5075096;28;20649;-82
2021/08/09 08:33:30;;;;;;;2.53;0.63;;;;;;;18.27;74.81;94097.44;5075142;28;20673;-81
2021/08/09 08:35:58;;;;;;;2.33;0.80;;;;;;;18.36;74.21;94090.69;5074777;28;20249;-81
2021/08/09 08:38:24;;;;;;;2.08;0.88;;;;;;;18.48;71.88;94094.06;5075115;28;20554;-80
2021/08/09 08:40:53;;;;;;;3.90;0.80;;;;;;;18.59;75.25;94099.50;5074835;28;20241;-80
2021/08/09 08:43:21;;;;;;;4.72;1.02;;;;;;;18.76;71.49;94105.56;5074785;28;20650;-80
2021/08/09 08:45:53;;;;;;;3.25;0.77;;;;;;;18.59;67.24;94107.44;5074712;28;20226;-80
2021/08/09 08:48:21;;;;;;;2.15;0.80;;;;;;;18.42;67.92;94095.03;5074830;28;20202;-81
2021/08/09 08:50:47;;;;;;;1.85;0.75;;;;;;;18.59;75.93;94092.34;5074946;28;20194;-81
2021/08/09 08:53:15;;;;;;;4.45;0.82;;;;;;;18.83;72.15;94108.84;5074787;28;20203;-80
2021/08/09 08:55:41;;;;;;;3.30;0.70;;;;;;;18.94;74.10;94101.88;5074765;28;20231;-81
2021/08/09 08:58:09;;;;;;;4.57;0.70;;;;;;;18.64;63.44;94097.72;5074536;28;20205;-81
2021/08/09 09:00:36;;;;;;;3.25;0.90;;;;;;;18.67;66.27;94102.53;5074797;28;20198;-81
2021/08/09 09:03:06;;;;;;;2.75;1.15;;;;;;;18.77;67.34;94098.41;5074474;28;20653;-81
2021/08/09 09:05:34;;;;;;;2.20;0.95;;;;;;;19.04;65.27;94099.34;5074636;28;20773;-82
2021/08/09 09:08:00;;;;;;;1.85;0.80;;;;;;;19.06;65.80;94098.31;5074701;28;20221;-81
2021/08/09 09:10:30;;;;;;;2.83;0.95;;;;;;;18.99;63.16;94109.09;5074024;28;20198;-81
2021/08/09 09:13:20;;;;;;;1.48;0.68;;;;;;;19.11;69.52;94117.69;5074241;28;20289;-81
2021/08/09 09:16:03;;;;;;;3.22;0.95;;;;;;;18.98;63.71;94116.19;5058100;28;20306;-80
2021/08/09 09:18:49;;;;;;;1.50;0.60;;;;;;;18.86;63.22;94111.00;5074119;28;20214;-81
2021/08/09 09:21:31;;;;;;;1.67;0.63;;;;;;;18.91;64.06;94117.44;5074472;28;20202;-82
2021/08/09 09:24:09;;;;;;;2.72;0.85;;;;;;;19.22;69.96;94108.06;5069101;28;20206;-81
2021/08/09 09:26:38;;;;;;;3.42;0.80;;;;;;;19.46;65.52;94105.94;5059952;28;20199;-82
2021/08/09 09:29:10;;;;;;;2.03;0.90;;;;;;;19.45;64.84;94112.31;5074412;28;20214;-81
2021/08/09 09:31:38;;;;;;;4.38;0.80;;;;;;;19.32;60.69;94123.28;5073874;28;20227;-81
2021/08/09 09:34:10;;;;;;;1.45;0.70;;;;;;;19.20;65.43;94110.94;5073996;28;20661;-80
2021/08/09 09:36:52;;;;;;;1.73;0.60;;;;;;;19.48;65.97;94111.78;5073801;28;20715;-80
2021/08/09 09:39:36;;;;;;;3.72;0.90;;;;;;;19.87;65.53;94114.38;5073924;28;20260;-82
2021/08/09 09:42:07;;;;;;;2.78;0.75;;;;;;;20.05;61.82;94120.34;5074111;28;20203;-82
2021/08/09 09:44:36;;;;;;;1.25;0.60;;;;;;;20.41;58.13;94126.00;5074236;28;20227;-81
2021/08/09 09:47:21;;;;;;;1.02;0.63;;;;;;;20.41;58.22;94123.34;5072954;28;20205;-83
2021/08/09 09:49:48;;;;;;;6.38;0.80;;;;;;;20.73;62.01;94120.69;5073901;28;20199;-83
2021/08/09 09:52:31;;;;;;;277.77;41.08;;;;;;;20.52;58.00;94117.06;5073798;28;20194;-82
2021/08/09 09:55:00;;;;;;;1.77;0.68;;;;;;;19.99;58.51;94124.03;5073461;28;20203;-82
2021/08/09 09:57:29;;;;;;;2.72;0.80;;;;;;;20.20;57.90;94127.66;5073567;28;20226;-84
2021/08/09 09:59:58;;;;;;;2.20;0.93;;;;;;;20.13;56.19;94128.69;5073580;28;20199;-83
2021/08/09 10:02:24;;;;;;;3.38;0.85;;;;;;;19.69;59.31;94123.44;5073588;28;20206;-82
2021/08/09 10:04:51;;;;;;;2.80;0.82;;;;;;;19.62;59.11;94127.31;5073362;28;20209;-81
2021/08/09 10:07:19;;;;;;;2.33;1.00;;;;;;;19.52;58.32;94120.84;5073390;28;20207;-81
2021/08/09 10:09:49;;;;;;;2.15;0.88;;;;;;;19.84;64.29;94135.28;5073319;28;20290;-83
2021/08/09 10:12:18;;;;;;;1.95;0.90;;;;;;;19.90;60.68;94134.25;5073256;28;20203;-82
2021/08/09 10:14:48;;;;;;;4.70;0.73;;;;;;;19.59;59.24;94129.41;5073394;28;20205;-82
2021/08/09 10:17:16;;;;;;;2.67;1.27;;;;;;;19.69;63.18;94130.59;5073218;28;20627;-82
2021/08/09 10:19:45;;;;;;;2.95;0.70;;;;;;;19.99;62.19;94122.16;5073316;28;20209;-82
2021/08/09 10:22:12;;;;;;;0.95;0.70;;;;;;;20.22;61.73;94117.63;5073360;28;20199;-82
2021/08/09 10:24:39;;;;;;;4.07;0.88;;;;;;;20.30;61.43;94117.94;5073268;28;20203;-82
2021/08/09 10:27:06;;;;;;;3.15;0.80;;;;;;;20.60;61.09;94118.44;5073124;28;20207;-83
2021/08/09 10:29:33;;;;;;;2.58;0.85;;;;;;;20.73;61.83;94117.22;5073338;28;20285;-83
2021/08/09 10:32:20;;;;;;;2.65;0.98;;;;;;;20.36;55.54;94129.41;5072958;28;20298;-83
2021/08/09 10:34:46;;;;;;;1.08;0.70;;;;;;;19.88;56.02;94131.84;5073539;28;20202;-82
2021/08/09 10:37:14;;;;;;;7.93;1.00;;;;;;;20.24;61.66;94126.91;5072879;28;20230;-82
2021/08/09 10:39:58;;;;;;;3.00;0.90;;;;;;;20.79;62.30;94118.88;5072910;28;20207;-82
2021/08/09 10:42:37;;;;;;;2.80;0.98;;;;;;;20.96;60.46;94119.50;5072810;28;20244;-83
2021/08/09 10:45:06;;;;;;;2.60;0.70;;;;;;;20.72;58.06;94118.28;5072988;28;20222;-84
2021/08/09 10:47:54;;;;;;;2.77;0.80;;;;;;;21.00;59.00;94125.09;5072355;28;20477;-83
2021/08/09 10:50:51;;;;;;;2.53;1.10;;;;;;;21.46;62.33;94121.88;5072986;28;20199;-84
2021/08/09 10:53:43;;;;;;;1.40;0.65;;;;;;;21.81;62.50;94116.69;5072705;28;20661;-82
2021/08/09 10:56:28;;;;;;;1.58;0.80;;;;;;;21.76;58.88;94115.88;5073192;28;20260;-84
2021/08/09 10:58:56;;;;;;;2.55;0.70;;;;;;;22.10;63.21;94100.28;5076462;28;20293;-83
2021/08/09 11:01:24;;;;;;;1.77;0.90;;;;;;;21.96;60.17;94115.13;5077254;28;20199;-80
2021/08/09 11:04:15;;;;;;;2.28;0.90;;;;;;;21.93;61.35;94123.63;5077260;28;20202;-82
2021/08/09 11:06:45;;;;;;;4.53;1.10;;;;;;;21.93;58.32;94124.47;5077181;28;20202;-82
2021/08/09 11:09:41;;;;;;;3.00;0.75;;;;;;;22.07;61.88;94127.41;5077120;28;20195;-82
2021/08/09 11:12:12;;;;;;;1.90;0.90;;;;;;;22.32;59.76;94128.53;5077583;28;20248;-84
2021/08/09 11:15:18;;;;;;;1.95;0.70;;;;;;;22.42;58.42;94117.88;5077201;28;20199;-83
2021/08/09 11:17:53;;;;;;;2.58;0.82;;;;;;;22.05;55.05;94128.72;5076563;28;20241;-82
2021/08/09 11:20:23;;;;;;;6.95;1.48;;;;;;;21.63;54.98;94133.13;5076891;28;20729;-83
2021/08/09 11:23:01;;;;;;;3.15;1.27;;;;;;;21.09;54.56;94138.69;5076843;28;20209;-83
2021/08/09 11:25:30;;;;;;;1.17;0.90;;;;;;;21.46;56.12;94133.28;5076940;28;20194;-82
2021/08/09 11:28:02;;;;;;;3.58;1.00;;;;;;;21.83;54.31;94134.25;5077201;28;20285;-83
2021/08/09 11:30:43;;;;;;;4.30;1.20;;;;;;;22.26;55.53;94125.03;5077057;28;20183;-82
2021/08/09 11:33:24;;;;;;;3.27;1.17;;;;;;;22.32;54.05;94126.66;5078169;28;20524;-82
2021/08/09 11:35:53;;;;;;;2.65;1.05;;;;;;;22.17;54.75;94119.44;5076742;28;20665;-83
2021/08/09 11:38:20;;;;;;;3.97;1.10;;;;;;;22.78;53.02;94117.06;5076274;28;20227;-83
2021/08/09 11:40:51;;;;;;;2.00;0.93;;;;;;;22.84;61.41;94106.13;5076213;28;20649;-82